sensor_id;sensor_type;location;lat;lon;timestamp;P1;durP1;ratioP1;P2;durP2;ratioP2
25073;SDS011;13066;52.042;5.648;2022-07-23T00:00:34;2.88;;;2.20;;
25073;SDS011;13066;52.042;5.648;2022-07-23T00:03:04;6.20;;;2.97;;
25073;SDS011;13066;52.042;5.648;2022-07-23T00:05:33;8.63;;;2.95;;
25073;SDS011;13066;52.042;5.648;2022-07-23T00:08:03;4.53;;;2.63;;
25073;SDS011;13066;52.042;5.648;2022-07-23T00:10:39;6.55;;;2.38;;
25073;SDS011;13066;52.042;5.648;2022-07-23T00:13:09;6.60;;;3.05;;
25073;SDS011;13066;52.042;5.648;2022-07-23T00:15:37;3.92;;;2.67;;
25073;SDS011;13066;52.042;5.648;2022-07-23T00:18:05;9.75;;;3.03;;
25073;SDS011;13066;52.042;5.648;2022-07-23T00:20:33;6.30;;;2.80;;
25073;SDS011;13066;52.042;5.648;2022-07-23T00:23:01;11.73;;;2.90;;
25073;SDS011;13066;52.042;5.648;2022-07-23T00:25:29;4.47;;;2.53;;
25073;SDS011;13066;52.042;5.648;2022-07-23T00:27:58;7.28;;;2.80;;
25073;SDS011;13066;52.042;5.648;2022-07-23T00:30:29;7.72;;;3.22;;
25073;SDS011;13066;52.042;5.648;2022-07-23T00:32:58;6.13;;;3.05;;
25073;SDS011;13066;52.042;5.648;2022-07-23T00:35:30;7.22;;;3.00;;
25073;SDS011;13066;52.042;5.648;2022-07-23T00:38:00;8.38;;;2.80;;
25073;SDS011;13066;52.042;5.648;2022-07-23T00:40:29;6.22;;;3.42;;
25073;SDS011;13066;52.042;5.648;2022-07-23T00:42:58;5.60;;;2.95;;
25073;SDS011;13066;52.042;5.648;2022-07-23T00:45:27;3.83;;;2.78;;
25073;SDS011;13066;52.042;5.648;2022-07-23T00:47:57;3.97;;;2.25;;
25073;SDS011;13066;52.042;5.648;2022-07-23T00:50:25;4.25;;;2.47;;
25073;SDS011;13066;52.042;5.648;2022-07-23T00:52:53;6.50;;;2.83;;
25073;SDS011;13066;52.042;5.648;2022-07-23T00:55:21;5.25;;;3.03;;
25073;SDS011;13066;52.042;5.648;2022-07-23T00:57:50;4.00;;;2.30;;
25073;SDS011;13066;52.042;5.648;2022-07-23T01:00:20;4.88;;;2.70;;
25073;SDS011;13066;52.042;5.648;2022-07-23T01:02:56;6.97;;;2.65;;
25073;SDS011;13066;52.042;5.648;2022-07-23T01:05:24;7.35;;;2.70;;
25073;SDS011;13066;52.042;5.648;2022-07-23T01:07:52;3.60;;;2.83;;
25073;SDS011;13066;52.042;5.648;2022-07-23T01:10:22;8.25;;;2.75;;
25073;SDS011;13066;52.042;5.648;2022-07-23T01:13:00;5.07;;;2.65;;
25073;SDS011;13066;52.042;5.648;2022-07-23T01:15:30;5.57;;;2.70;;
25073;SDS011;13066;52.042;5.648;2022-07-23T01:18:00;3.55;;;2.70;;
25073;SDS011;13066;52.042;5.648;2022-07-23T01:20:29;8.45;;;2.78;;
25073;SDS011;13066;52.042;5.648;2022-07-23T01:22:59;6.25;;;3.33;;
25073;SDS011;13066;52.042;5.648;2022-07-23T01:25:28;3.95;;;2.80;;
25073;SDS011;13066;52.042;5.648;2022-07-23T01:27:56;3.70;;;2.92;;
25073;SDS011;13066;52.042;5.648;2022-07-23T01:30:24;4.88;;;3.17;;
25073;SDS011;13066;52.042;5.648;2022-07-23T01:32:52;6.03;;;2.75;;
25073;SDS011;13066;52.042;5.648;2022-07-23T01:35:20;6.63;;;3.28;;
25073;SDS011;13066;52.042;5.648;2022-07-23T01:37:48;5.32;;;2.95;;
25073;SDS011;13066;52.042;5.648;2022-07-23T01:40:17;5.38;;;3.17;;
25073;SDS011;13066;52.042;5.648;2022-07-23T01:42:48;8.57;;;3.33;;
25073;SDS011;13066;52.042;5.648;2022-07-23T01:45:16;5.55;;;3.67;;
25073;SDS011;13066;52.042;5.648;2022-07-23T01:47:44;8.25;;;3.67;;
25073;SDS011;13066;52.042;5.648;2022-07-23T01:50:12;8.13;;;3.50;;
25073;SDS011;13066;52.042;5.648;2022-07-23T01:52:40;8.93;;;3.45;;
25073;SDS011;13066;52.042;5.648;2022-07-23T01:55:09;7.30;;;3.38;;
25073;SDS011;13066;52.042;5.648;2022-07-23T01:57:45;6.43;;;3.90;;
25073;SDS011;13066;52.042;5.648;2022-07-23T02:00:14;5.07;;;3.40;;
25073;SDS011;13066;52.042;5.648;2022-07-23T02:02:42;8.50;;;3.30;;
25073;SDS011;13066;52.042;5.648;2022-07-23T02:05:10;6.85;;;3.50;;
25073;SDS011;13066;52.042;5.648;2022-07-23T02:07:38;3.92;;;3.10;;
25073;SDS011;13066;52.042;5.648;2022-07-23T02:10:07;5.22;;;3.00;;
25073;SDS011;13066;52.042;5.648;2022-07-23T02:12:35;7.90;;;3.15;;
25073;SDS011;13066;52.042;5.648;2022-07-23T02:15:06;7.80;;;3.25;;
25073;SDS011;13066;52.042;5.648;2022-07-23T02:17:35;4.53;;;2.63;;
25073;SDS011;13066;52.042;5.648;2022-07-23T02:20:03;10.02;;;3.05;;
25073;SDS011;13066;52.042;5.648;2022-07-23T02:22:33;3.95;;;2.65;;
25073;SDS011;13066;52.042;5.648;2022-07-23T02:25:01;5.93;;;3.08;;
25073;SDS011;13066;52.042;5.648;2022-07-23T02:27:29;5.78;;;2.63;;
25073;SDS011;13066;52.042;5.648;2022-07-23T02:29:58;4.43;;;2.55;;
25073;SDS011;13066;52.042;5.648;2022-07-23T02:32:27;4.05;;;2.45;;
25073;SDS011;13066;52.042;5.648;2022-07-23T02:34:56;5.03;;;2.63;;
25073;SDS011;13066;52.042;5.648;2022-07-23T02:37:24;3.58;;;2.50;;
25073;SDS011;13066;52.042;5.648;2022-07-23T02:39:52;4.03;;;2.70;;
25073;SDS011;13066;52.042;5.648;2022-07-23T02:42:20;5.93;;;2.60;;
25073;SDS011;13066;52.042;5.648;2022-07-23T02:44:50;4.55;;;2.38;;
25073;SDS011;13066;52.042;5.648;2022-07-23T02:47:18;5.13;;;2.13;;
25073;SDS011;13066;52.042;5.648;2022-07-23T02:49:47;3.25;;;2.42;;
25073;SDS011;13066;52.042;5.648;2022-07-23T02:52:15;4.63;;;2.17;;
25073;SDS011;13066;52.042;5.648;2022-07-23T02:54:43;13.55;;;3.50;;
25073;SDS011;13066;52.042;5.648;2022-07-23T02:57:11;4.60;;;2.70;;
25073;SDS011;13066;52.042;5.648;2022-07-23T02:59:39;4.75;;;2.80;;
25073;SDS011;13066;52.042;5.648;2022-07-23T03:02:07;3.60;;;2.42;;
25073;SDS011;13066;52.042;5.648;2022-07-23T03:04:35;6.90;;;2.85;;
25073;SDS011;13066;52.042;5.648;2022-07-23T03:07:05;3.38;;;2.22;;
25073;SDS011;13066;52.042;5.648;2022-07-23T03:09:33;4.75;;;2.78;;
25073;SDS011;13066;52.042;5.648;2022-07-23T03:12:01;3.28;;;2.35;;
25073;SDS011;13066;52.042;5.648;2022-07-23T03:14:32;6.63;;;2.53;;
25073;SDS011;13066;52.042;5.648;2022-07-23T03:17:00;7.20;;;2.72;;
25073;SDS011;13066;52.042;5.648;2022-07-23T03:19:29;8.13;;;3.05;;
25073;SDS011;13066;52.042;5.648;2022-07-23T03:21:57;5.95;;;2.83;;
25073;SDS011;13066;52.042;5.648;2022-07-23T03:24:26;5.15;;;2.60;;
25073;SDS011;13066;52.042;5.648;2022-07-23T03:27:15;7.63;;;2.92;;
25073;SDS011;13066;52.042;5.648;2022-07-23T03:29:43;3.75;;;2.80;;
25073;SDS011;13066;52.042;5.648;2022-07-23T03:32:11;5.05;;;2.90;;
25073;SDS011;13066;52.042;5.648;2022-07-23T03:34:40;3.80;;;3.40;;
25073;SDS011;13066;52.042;5.648;2022-07-23T03:37:08;6.93;;;3.58;;
25073;SDS011;13066;52.042;5.648;2022-07-23T03:39:37;4.85;;;3.47;;
25073;SDS011;13066;52.042;5.648;2022-07-23T03:42:05;5.90;;;3.53;;
25073;SDS011;13066;52.042;5.648;2022-07-23T03:44:34;7.32;;;3.38;;
25073;SDS011;13066;52.042;5.648;2022-07-23T03:47:04;5.13;;;3.15;;
25073;SDS011;13066;52.042;5.648;2022-07-23T03:49:33;3.90;;;3.10;;
25073;SDS011;13066;52.042;5.648;2022-07-23T03:52:01;6.40;;;3.35;;
25073;SDS011;13066;52.042;5.648;2022-07-23T03:54:29;5.45;;;2.97;;
25073;SDS011;13066;52.042;5.648;2022-07-23T03:56:59;5.25;;;2.67;;
25073;SDS011;13066;52.042;5.648;2022-07-23T03:59:29;6.38;;;3.10;;
25073;SDS011;13066;52.042;5.648;2022-07-23T04:01:57;6.90;;;3.33;;
25073;SDS011;13066;52.042;5.648;2022-07-23T04:04:25;3.67;;;2.83;;
25073;SDS011;13066;52.042;5.648;2022-07-23T04:06:53;7.35;;;3.53;;
25073;SDS011;13066;52.042;5.648;2022-07-23T04:09:21;7.28;;;3.25;;
25073;SDS011;13066;52.042;5.648;2022-07-23T04:11:49;8.57;;;2.90;;
25073;SDS011;13066;52.042;5.648;2022-07-23T04:14:19;6.00;;;3.70;;
25073;SDS011;13066;52.042;5.648;2022-07-23T04:16:47;5.38;;;2.70;;
25073;SDS011;13066;52.042;5.648;2022-07-23T04:19:15;4.93;;;3.35;;
25073;SDS011;13066;52.042;5.648;2022-07-23T04:21:44;6.68;;;3.80;;
25073;SDS011;13066;52.042;5.648;2022-07-23T04:24:12;10.60;;;3.95;;
25073;SDS011;13066;52.042;5.648;2022-07-23T04:26:40;4.32;;;3.33;;
25073;SDS011;13066;52.042;5.648;2022-07-23T04:29:08;5.53;;;3.55;;
25073;SDS011;13066;52.042;5.648;2022-07-23T04:31:38;8.88;;;3.88;;
25073;SDS011;13066;52.042;5.648;2022-07-23T04:34:06;15.13;;;4.72;;
25073;SDS011;13066;52.042;5.648;2022-07-23T04:36:34;21.83;;;5.13;;
25073;SDS011;13066;52.042;5.648;2022-07-23T04:39:02;9.48;;;3.60;;
25073;SDS011;13066;52.042;5.648;2022-07-23T04:41:31;4.88;;;4.07;;
25073;SDS011;13066;52.042;5.648;2022-07-23T04:43:59;9.50;;;3.78;;
25073;SDS011;13066;52.042;5.648;2022-07-23T04:46:27;6.00;;;3.75;;
25073;SDS011;13066;52.042;5.648;2022-07-23T04:48:56;8.90;;;3.70;;
25073;SDS011;13066;52.042;5.648;2022-07-23T04:51:25;5.55;;;3.47;;
25073;SDS011;13066;52.042;5.648;2022-07-23T04:53:55;7.85;;;4.05;;
25073;SDS011;13066;52.042;5.648;2022-07-23T04:56:23;5.78;;;3.50;;
25073;SDS011;13066;52.042;5.648;2022-07-23T04:58:51;8.18;;;3.55;;
25073;SDS011;13066;52.042;5.648;2022-07-23T05:01:19;7.55;;;3.70;;
25073;SDS011;13066;52.042;5.648;2022-07-23T05:03:47;8.55;;;3.92;;
25073;SDS011;13066;52.042;5.648;2022-07-23T05:06:16;6.43;;;3.60;;
25073;SDS011;13066;52.042;5.648;2022-07-23T05:08:44;6.72;;;3.30;;
25073;SDS011;13066;52.042;5.648;2022-07-23T05:11:13;9.32;;;3.65;;
25073;SDS011;13066;52.042;5.648;2022-07-23T05:13:41;5.18;;;3.42;;
25073;SDS011;13066;52.042;5.648;2022-07-23T05:16:09;7.22;;;3.60;;
25073;SDS011;13066;52.042;5.648;2022-07-23T05:18:37;8.35;;;3.95;;
25073;SDS011;13066;52.042;5.648;2022-07-23T05:21:05;9.32;;;4.93;;
25073;SDS011;13066;52.042;5.648;2022-07-23T05:23:34;13.75;;;5.88;;
25073;SDS011;13066;52.042;5.648;2022-07-23T05:26:02;12.63;;;6.80;;
25073;SDS011;13066;52.042;5.648;2022-07-23T05:28:30;11.48;;;6.18;;
25073;SDS011;13066;52.042;5.648;2022-07-23T05:30:58;9.85;;;5.22;;
25073;SDS011;13066;52.042;5.648;2022-07-23T05:33:27;9.07;;;5.10;;
25073;SDS011;13066;52.042;5.648;2022-07-23T05:35:59;13.57;;;8.43;;
25073;SDS011;13066;52.042;5.648;2022-07-23T05:38:28;11.60;;;7.20;;
25073;SDS011;13066;52.042;5.648;2022-07-23T05:40:57;16.85;;;7.88;;
25073;SDS011;13066;52.042;5.648;2022-07-23T05:43:25;16.27;;;8.00;;
25073;SDS011;13066;52.042;5.648;2022-07-23T05:45:54;17.77;;;5.40;;
25073;SDS011;13066;52.042;5.648;2022-07-23T05:48:23;5.15;;;4.20;;
25073;SDS011;13066;52.042;5.648;2022-07-23T05:50:51;8.27;;;4.18;;
25073;SDS011;13066;52.042;5.648;2022-07-23T05:53:19;6.50;;;3.65;;
25073;SDS011;13066;52.042;5.648;2022-07-23T05:55:47;10.85;;;3.58;;
25073;SDS011;13066;52.042;5.648;2022-07-23T05:58:17;8.95;;;3.67;;
25073;SDS011;13066;52.042;5.648;2022-07-23T06:00:45;5.63;;;3.45;;
25073;SDS011;13066;52.042;5.648;2022-07-23T06:03:13;6.55;;;3.42;;
25073;SDS011;13066;52.042;5.648;2022-07-23T06:05:41;6.65;;;3.83;;
25073;SDS011;13066;52.042;5.648;2022-07-23T06:08:09;6.60;;;3.20;;
25073;SDS011;13066;52.042;5.648;2022-07-23T06:10:37;5.13;;;3.60;;
25073;SDS011;13066;52.042;5.648;2022-07-23T06:13:06;6.32;;;3.38;;
25073;SDS011;13066;52.042;5.648;2022-07-23T06:15:36;8.48;;;2.97;;
25073;SDS011;13066;52.042;5.648;2022-07-23T06:18:04;6.22;;;2.95;;
25073;SDS011;13066;52.042;5.648;2022-07-23T06:20:32;6.28;;;2.97;;
25073;SDS011;13066;52.042;5.648;2022-07-23T06:23:01;8.20;;;2.95;;
25073;SDS011;13066;52.042;5.648;2022-07-23T06:25:29;4.70;;;2.67;;
25073;SDS011;13066;52.042;5.648;2022-07-23T06:27:57;5.22;;;3.13;;
25073;SDS011;13066;52.042;5.648;2022-07-23T06:30:26;5.72;;;2.80;;
25073;SDS011;13066;52.042;5.648;2022-07-23T06:32:56;7.15;;;2.60;;
25073;SDS011;13066;52.042;5.648;2022-07-23T06:35:24;4.93;;;2.55;;
25073;SDS011;13066;52.042;5.648;2022-07-23T06:37:53;11.30;;;3.83;;
25073;SDS011;13066;52.042;5.648;2022-07-23T06:40:21;8.73;;;3.38;;
25073;SDS011;13066;52.042;5.648;2022-07-23T06:42:49;9.60;;;3.17;;
25073;SDS011;13066;52.042;5.648;2022-07-23T06:45:18;3.78;;;2.90;;
25073;SDS011;13066;52.042;5.648;2022-07-23T06:47:46;5.47;;;3.03;;
25073;SDS011;13066;52.042;5.648;2022-07-23T06:50:16;7.00;;;3.17;;
25073;SDS011;13066;52.042;5.648;2022-07-23T06:52:44;4.85;;;3.10;;
25073;SDS011;13066;52.042;5.648;2022-07-23T06:55:12;9.57;;;3.10;;
25073;SDS011;13066;52.042;5.648;2022-07-23T06:57:41;6.63;;;2.55;;
25073;SDS011;13066;52.042;5.648;2022-07-23T07:00:09;5.20;;;2.05;;
25073;SDS011;13066;52.042;5.648;2022-07-23T07:02:38;5.05;;;2.30;;
25073;SDS011;13066;52.042;5.648;2022-07-23T07:05:06;12.77;;;2.72;;
25073;SDS011;13066;52.042;5.648;2022-07-23T07:07:36;6.13;;;2.70;;
25073;SDS011;13066;52.042;5.648;2022-07-23T07:10:04;7.13;;;2.38;;
25073;SDS011;13066;52.042;5.648;2022-07-23T07:12:41;6.60;;;2.80;;
25073;SDS011;13066;52.042;5.648;2022-07-23T07:15:09;7.15;;;3.40;;
25073;SDS011;13066;52.042;5.648;2022-07-23T07:17:37;5.47;;;3.20;;
25073;SDS011;13066;52.042;5.648;2022-07-23T07:20:06;4.28;;;2.55;;
25073;SDS011;13066;52.042;5.648;2022-07-23T07:22:37;6.88;;;3.03;;
25073;SDS011;13066;52.042;5.648;2022-07-23T07:25:05;6.10;;;2.95;;
25073;SDS011;13066;52.042;5.648;2022-07-23T07:27:34;5.82;;;2.50;;
25073;SDS011;13066;52.042;5.648;2022-07-23T07:30:02;5.43;;;2.10;;
25073;SDS011;13066;52.042;5.648;2022-07-23T07:32:31;5.18;;;2.15;;
25073;SDS011;13066;52.042;5.648;2022-07-23T07:35:19;4.57;;;2.70;;
25073;SDS011;13066;52.042;5.648;2022-07-23T07:37:49;6.57;;;2.22;;
25073;SDS011;13066;52.042;5.648;2022-07-23T07:40:17;5.80;;;2.63;;
25073;SDS011;13066;52.042;5.648;2022-07-23T07:42:45;7.07;;;2.72;;
25073;SDS011;13066;52.042;5.648;2022-07-23T07:45:16;5.15;;;2.85;;
25073;SDS011;13066;52.042;5.648;2022-07-23T07:47:47;6.07;;;2.80;;
25073;SDS011;13066;52.042;5.648;2022-07-23T07:50:15;6.00;;;3.33;;
25073;SDS011;13066;52.042;5.648;2022-07-23T07:52:43;9.60;;;3.83;;
25073;SDS011;13066;52.042;5.648;2022-07-23T07:55:13;6.03;;;3.30;;
25073;SDS011;13066;52.042;5.648;2022-07-23T07:57:43;9.68;;;3.72;;
25073;SDS011;13066;52.042;5.648;2022-07-23T08:00:15;5.35;;;3.80;;
25073;SDS011;13066;52.042;5.648;2022-07-23T08:02:44;7.65;;;3.50;;
25073;SDS011;13066;52.042;5.648;2022-07-23T08:05:18;6.22;;;3.63;;
25073;SDS011;13066;52.042;5.648;2022-07-23T08:07:53;5.65;;;3.20;;
25073;SDS011;13066;52.042;5.648;2022-07-23T08:10:24;9.10;;;3.55;;
25073;SDS011;13066;52.042;5.648;2022-07-23T08:12:54;6.68;;;3.78;;
25073;SDS011;13066;52.042;5.648;2022-07-23T08:15:24;6.75;;;3.17;;
25073;SDS011;13066;52.042;5.648;2022-07-23T08:17:55;4.10;;;3.47;;
25073;SDS011;13066;52.042;5.648;2022-07-23T08:20:24;10.20;;;3.55;;
25073;SDS011;13066;52.042;5.648;2022-07-23T08:22:55;8.13;;;3.60;;
25073;SDS011;13066;52.042;5.648;2022-07-23T08:25:26;8.60;;;3.70;;
25073;SDS011;13066;52.042;5.648;2022-07-23T08:27:56;10.63;;;3.92;;
25073;SDS011;13066;52.042;5.648;2022-07-23T08:30:25;5.85;;;3.30;;
25073;SDS011;13066;52.042;5.648;2022-07-23T08:32:54;10.63;;;3.45;;
25073;SDS011;13066;52.042;5.648;2022-07-23T08:35:24;11.68;;;3.17;;
25073;SDS011;13066;52.042;5.648;2022-07-23T08:37:55;6.05;;;3.05;;
25073;SDS011;13066;52.042;5.648;2022-07-23T08:40:23;8.30;;;3.03;;
25073;SDS011;13066;52.042;5.648;2022-07-23T08:42:55;4.55;;;3.08;;
25073;SDS011;13066;52.042;5.648;2022-07-23T08:45:24;6.90;;;3.25;;
25073;SDS011;13066;52.042;5.648;2022-07-23T08:47:54;8.18;;;3.67;;
25073;SDS011;13066;52.042;5.648;2022-07-23T08:50:28;5.85;;;3.40;;
25073;SDS011;13066;52.042;5.648;2022-07-23T08:52:56;6.55;;;3.42;;
25073;SDS011;13066;52.042;5.648;2022-07-23T08:55:30;9.20;;;3.05;;
25073;SDS011;13066;52.042;5.648;2022-07-23T08:57:58;3.65;;;2.85;;
25073;SDS011;13066;52.042;5.648;2022-07-23T09:00:26;5.97;;;3.30;;
25073;SDS011;13066;52.042;5.648;2022-07-23T09:02:54;4.53;;;2.80;;
25073;SDS011;13066;52.042;5.648;2022-07-23T09:05:23;63.70;;;6.32;;
25073;SDS011;13066;52.042;5.648;2022-07-23T09:08:07;6.05;;;3.10;;
25073;SDS011;13066;52.042;5.648;2022-07-23T09:10:44;27.33;;;5.03;;
25073;SDS011;13066;52.042;5.648;2022-07-23T09:13:24;17.80;;;3.72;;
25073;SDS011;13066;52.042;5.648;2022-07-23T09:15:55;4.53;;;2.63;;
25073;SDS011;13066;52.042;5.648;2022-07-23T09:18:28;30.38;;;4.30;;
25073;SDS011;13066;52.042;5.648;2022-07-23T09:21:07;12.13;;;4.10;;
25073;SDS011;13066;52.042;5.648;2022-07-23T09:23:37;4.25;;;2.63;;
25073;SDS011;13066;52.042;5.648;2022-07-23T09:26:24;80.95;;;6.75;;
25073;SDS011;13066;52.042;5.648;2022-07-23T09:28:57;6.68;;;3.38;;
25073;SDS011;13066;52.042;5.648;2022-07-23T09:31:30;6.90;;;3.00;;
25073;SDS011;13066;52.042;5.648;2022-07-23T09:34:07;7.13;;;3.35;;
25073;SDS011;13066;52.042;5.648;2022-07-23T09:36:36;7.88;;;3.28;;
25073;SDS011;13066;52.042;5.648;2022-07-23T09:39:05;5.15;;;3.05;;
25073;SDS011;13066;52.042;5.648;2022-07-23T09:41:36;7.43;;;3.80;;
25073;SDS011;13066;52.042;5.648;2022-07-23T09:44:06;105.88;;;9.38;;
25073;SDS011;13066;52.042;5.648;2022-07-23T09:46:35;13.55;;;3.95;;
25073;SDS011;13066;52.042;5.648;2022-07-23T09:49:18;4.43;;;3.00;;
25073;SDS011;13066;52.042;5.648;2022-07-23T09:51:48;7.90;;;3.00;;
25073;SDS011;13066;52.042;5.648;2022-07-23T09:54:20;6.57;;;3.17;;
25073;SDS011;13066;52.042;5.648;2022-07-23T09:56:56;7.85;;;3.10;;
25073;SDS011;13066;52.042;5.648;2022-07-23T09:59:26;6.72;;;3.08;;
25073;SDS011;13066;52.042;5.648;2022-07-23T10:01:57;20.90;;;3.28;;
25073;SDS011;13066;52.042;5.648;2022-07-23T10:04:26;9.65;;;3.70;;
25073;SDS011;13066;52.042;5.648;2022-07-23T10:06:56;9.00;;;4.15;;
25073;SDS011;13066;52.042;5.648;2022-07-23T10:09:28;5.72;;;3.42;;
25073;SDS011;13066;52.042;5.648;2022-07-23T10:11:59;9.57;;;3.38;;
25073;SDS011;13066;52.042;5.648;2022-07-23T10:14:39;14.48;;;3.38;;
25073;SDS011;13066;52.042;5.648;2022-07-23T10:17:06;6.25;;;2.22;;
25073;SDS011;13066;52.042;5.648;2022-07-23T10:19:35;8.52;;;2.10;;
25073;SDS011;13066;52.042;5.648;2022-07-23T10:22:04;6.13;;;2.33;;
25073;SDS011;13066;52.042;5.648;2022-07-23T10:24:41;7.13;;;3.95;;
25073;SDS011;13066;52.042;5.648;2022-07-23T10:27:21;13.43;;;2.95;;
25073;SDS011;13066;52.042;5.648;2022-07-23T10:30:09;3.67;;;2.30;;
25073;SDS011;13066;52.042;5.648;2022-07-23T10:32:42;4.10;;;2.75;;
25073;SDS011;13066;52.042;5.648;2022-07-23T10:35:18;26.33;;;4.88;;
25073;SDS011;13066;52.042;5.648;2022-07-23T10:37:52;6.00;;;2.85;;
25073;SDS011;13066;52.042;5.648;2022-07-23T10:40:24;5.25;;;2.80;;
25073;SDS011;13066;52.042;5.648;2022-07-23T10:42:52;5.85;;;2.40;;
25073;SDS011;13066;52.042;5.648;2022-07-23T10:45:29;6.78;;;2.70;;
25073;SDS011;13066;52.042;5.648;2022-07-23T10:48:12;3.35;;;2.30;;
25073;SDS011;13066;52.042;5.648;2022-07-23T10:50:42;4.18;;;2.50;;
25073;SDS011;13066;52.042;5.648;2022-07-23T10:53:12;5.82;;;2.95;;
25073;SDS011;13066;52.042;5.648;2022-07-23T10:55:52;7.65;;;3.38;;
25073;SDS011;13066;52.042;5.648;2022-07-23T10:58:23;3.85;;;2.65;;
25073;SDS011;13066;52.042;5.648;2022-07-23T11:01:31;8.70;;;3.03;;
25073;SDS011;13066;52.042;5.648;2022-07-23T11:04:01;9.23;;;3.10;;
25073;SDS011;13066;52.042;5.648;2022-07-23T11:09:39;8.18;;;3.15;;
25073;SDS011;13066;52.042;5.648;2022-07-23T11:15:08;6.78;;;2.50;;
25073;SDS011;13066;52.042;5.648;2022-07-23T11:17:38;3.40;;;2.55;;
25073;SDS011;13066;52.042;5.648;2022-07-23T11:20:26;2.28;;;2.08;;
25073;SDS011;13066;52.042;5.648;2022-07-23T11:22:55;4.60;;;2.05;;
25073;SDS011;13066;52.042;5.648;2022-07-23T11:25:36;2.58;;;1.77;;
25073;SDS011;13066;52.042;5.648;2022-07-23T11:28:08;9.23;;;2.28;;
25073;SDS011;13066;52.042;5.648;2022-07-23T11:33:18;3.83;;;2.08;;
25073;SDS011;13066;52.042;5.648;2022-07-23T11:35:59;4.05;;;2.03;;
25073;SDS011;13066;52.042;5.648;2022-07-23T11:38:30;4.30;;;2.33;;
25073;SDS011;13066;52.042;5.648;2022-07-23T11:41:00;5.55;;;2.70;;
25073;SDS011;13066;52.042;5.648;2022-07-23T11:43:28;23.63;;;3.97;;
25073;SDS011;13066;52.042;5.648;2022-07-23T11:45:58;3.38;;;2.30;;
25073;SDS011;13066;52.042;5.648;2022-07-23T11:48:28;5.40;;;2.25;;
25073;SDS011;13066;52.042;5.648;2022-07-23T11:50:58;4.00;;;2.33;;
25073;SDS011;13066;52.042;5.648;2022-07-23T11:53:27;4.07;;;2.58;;
25073;SDS011;13066;52.042;5.648;2022-07-23T11:56:02;8.38;;;3.17;;
25073;SDS011;13066;52.042;5.648;2022-07-23T11:58:31;3.10;;;2.00;;
25073;SDS011;13066;52.042;5.648;2022-07-23T12:01:00;6.65;;;2.30;;
25073;SDS011;13066;52.042;5.648;2022-07-23T12:03:29;5.75;;;2.40;;
25073;SDS011;13066;52.042;5.648;2022-07-23T12:05:57;5.53;;;2.42;;
25073;SDS011;13066;52.042;5.648;2022-07-23T12:08:27;4.43;;;2.70;;
25073;SDS011;13066;52.042;5.648;2022-07-23T12:10:55;3.58;;;2.33;;
25073;SDS011;13066;52.042;5.648;2022-07-23T12:13:23;5.50;;;2.80;;
25073;SDS011;13066;52.042;5.648;2022-07-23T12:15:52;14.57;;;3.38;;
25073;SDS011;13066;52.042;5.648;2022-07-23T12:18:26;9.23;;;2.28;;
25073;SDS011;13066;52.042;5.648;2022-07-23T12:20:55;19.25;;;3.47;;
25073;SDS011;13066;52.042;5.648;2022-07-23T12:23:27;5.35;;;2.38;;
25073;SDS011;13066;52.042;5.648;2022-07-23T12:25:55;6.97;;;2.50;;
25073;SDS011;13066;52.042;5.648;2022-07-23T12:28:29;5.82;;;2.30;;
25073;SDS011;13066;52.042;5.648;2022-07-23T12:30:58;2.88;;;2.20;;
25073;SDS011;13066;52.042;5.648;2022-07-23T12:33:29;4.32;;;2.17;;
25073;SDS011;13066;52.042;5.648;2022-07-23T12:35:59;2.88;;;2.08;;
25073;SDS011;13066;52.042;5.648;2022-07-23T12:38:36;5.30;;;2.03;;
25073;SDS011;13066;52.042;5.648;2022-07-23T12:41:05;4.03;;;2.00;;
25073;SDS011;13066;52.042;5.648;2022-07-23T12:43:34;3.65;;;2.20;;
25073;SDS011;13066;52.042;5.648;2022-07-23T12:46:04;3.72;;;2.15;;
25073;SDS011;13066;52.042;5.648;2022-07-23T12:48:36;17.38;;;3.55;;
25073;SDS011;13066;52.042;5.648;2022-07-23T12:51:06;18.08;;;2.65;;
25073;SDS011;13066;52.042;5.648;2022-07-23T12:53:44;15.98;;;2.75;;
25073;SDS011;13066;52.042;5.648;2022-07-23T12:56:14;2.40;;;2.03;;
25073;SDS011;13066;52.042;5.648;2022-07-23T12:58:46;4.60;;;2.05;;
25073;SDS011;13066;52.042;5.648;2022-07-23T13:01:24;5.57;;;2.08;;
25073;SDS011;13066;52.042;5.648;2022-07-23T13:03:56;9.15;;;2.72;;
25073;SDS011;13066;52.042;5.648;2022-07-23T13:06:27;7.28;;;2.42;;
25073;SDS011;13066;52.042;5.648;2022-07-23T13:08:56;4.25;;;2.10;;
25073;SDS011;13066;52.042;5.648;2022-07-23T13:11:27;16.20;;;2.60;;
25073;SDS011;13066;52.042;5.648;2022-07-23T13:13:56;8.30;;;2.50;;
25073;SDS011;13066;52.042;5.648;2022-07-23T13:16:26;8.90;;;1.92;;
25073;SDS011;13066;52.042;5.648;2022-07-23T13:18:56;4.00;;;2.08;;
25073;SDS011;13066;52.042;5.648;2022-07-23T13:21:25;7.10;;;2.42;;
25073;SDS011;13066;52.042;5.648;2022-07-23T13:23:54;2.90;;;2.08;;
25073;SDS011;13066;52.042;5.648;2022-07-23T13:26:22;5.45;;;1.90;;
25073;SDS011;13066;52.042;5.648;2022-07-23T13:28:51;4.40;;;1.92;;
25073;SDS011;13066;52.042;5.648;2022-07-23T13:31:20;6.53;;;2.28;;
25073;SDS011;13066;52.042;5.648;2022-07-23T13:33:50;5.53;;;1.80;;
25073;SDS011;13066;52.042;5.648;2022-07-23T13:36:19;2.97;;;1.70;;
25073;SDS011;13066;52.042;5.648;2022-07-23T13:38:48;3.78;;;1.92;;
25073;SDS011;13066;52.042;5.648;2022-07-23T13:41:16;3.40;;;1.60;;
25073;SDS011;13066;52.042;5.648;2022-07-23T13:43:44;4.32;;;2.20;;
25073;SDS011;13066;52.042;5.648;2022-07-23T13:46:13;4.68;;;1.80;;
25073;SDS011;13066;52.042;5.648;2022-07-23T13:48:41;4.88;;;2.05;;
25073;SDS011;13066;52.042;5.648;2022-07-23T13:51:09;3.20;;;1.85;;
25073;SDS011;13066;52.042;5.648;2022-07-23T13:53:39;4.53;;;2.20;;
25073;SDS011;13066;52.042;5.648;2022-07-23T13:56:07;15.35;;;2.75;;
25073;SDS011;13066;52.042;5.648;2022-07-23T13:58:37;11.73;;;2.35;;
25073;SDS011;13066;52.042;5.648;2022-07-23T14:01:07;6.07;;;2.22;;
25073;SDS011;13066;52.042;5.648;2022-07-23T14:03:36;5.50;;;1.88;;
25073;SDS011;13066;52.042;5.648;2022-07-23T14:06:04;7.15;;;1.80;;
25073;SDS011;13066;52.042;5.648;2022-07-23T14:08:43;5.80;;;1.85;;
25073;SDS011;13066;52.042;5.648;2022-07-23T14:11:12;3.90;;;1.73;;
25073;SDS011;13066;52.042;5.648;2022-07-23T14:13:40;8.95;;;2.78;;
25073;SDS011;13066;52.042;5.648;2022-07-23T14:16:08;5.75;;;1.90;;
25073;SDS011;13066;52.042;5.648;2022-07-23T14:18:37;2.83;;;1.80;;
25073;SDS011;13066;52.042;5.648;2022-07-23T14:21:05;4.53;;;1.73;;
25073;SDS011;13066;52.042;5.648;2022-07-23T14:23:34;4.18;;;1.70;;
25073;SDS011;13066;52.042;5.648;2022-07-23T14:26:06;10.15;;;2.22;;
25073;SDS011;13066;52.042;5.648;2022-07-23T14:28:35;13.52;;;1.90;;
25073;SDS011;13066;52.042;5.648;2022-07-23T14:31:05;6.30;;;2.03;;
25073;SDS011;13066;52.042;5.648;2022-07-23T14:33:47;7.72;;;1.73;;
25073;SDS011;13066;52.042;5.648;2022-07-23T14:36:15;60.40;;;6.13;;
25073;SDS011;13066;52.042;5.648;2022-07-23T14:38:44;11.68;;;2.10;;
25073;SDS011;13066;52.042;5.648;2022-07-23T14:41:13;2.63;;;1.88;;
25073;SDS011;13066;52.042;5.648;2022-07-23T14:43:42;9.63;;;2.10;;
25073;SDS011;13066;52.042;5.648;2022-07-23T14:46:11;61.47;;;4.15;;
25073;SDS011;13066;52.042;5.648;2022-07-23T14:48:40;27.83;;;3.80;;
25073;SDS011;13066;52.042;5.648;2022-07-23T14:51:08;14.55;;;2.38;;
25073;SDS011;13066;52.042;5.648;2022-07-23T14:53:37;22.67;;;3.58;;
25073;SDS011;13066;52.042;5.648;2022-07-23T14:56:06;39.88;;;3.08;;
25073;SDS011;13066;52.042;5.648;2022-07-23T14:58:35;3.40;;;1.60;;
25073;SDS011;13066;52.042;5.648;2022-07-23T15:01:04;2.35;;;1.60;;
25073;SDS011;13066;52.042;5.648;2022-07-23T15:03:32;44.60;;;3.95;;
25073;SDS011;13066;52.042;5.648;2022-07-23T15:06:08;15.35;;;3.00;;
25073;SDS011;13066;52.042;5.648;2022-07-23T15:08:37;10.68;;;2.30;;
25073;SDS011;13066;52.042;5.648;2022-07-23T15:11:06;4.07;;;1.80;;